Time;durP1;ratioP1;P1;durP2;ratioP2;P2;SDS_P1;SDS_P2;PMS_P1;PMS_P2;Temp;Humidity;BMP_temperature;BMP_pressure;BME280_temperature;BME280_humidity;BME280_pressure;Samples;Min_cycle;Max_cycle;Signal;HPM_P1;HPM_P2
2022/02/06 00:00:51;;;;;;;2.47;2.27;;;2.90;99.90;;;;;;6240280;22;20403;-82
2022/02/06 00:03:22;;;;;;;2.87;1.37;;;2.90;99.90;;;;;;6238912;22;20680;-81
2022/02/06 00:05:49;;;;;;;3.37;1.53;;;3.00;99.90;;;;;;6244105;22;20645;-81
2022/02/06 00:08:14;;;;;;;3.30;1.60;;;3.00;99.90;;;;;;6268362;22;20792;-81
2022/02/06 00:10:40;;;;;;;2.90;1.57;;;3.10;99.90;;;;;;6238510;22;20396;-81
2022/02/06 00:13:06;;;;;;;2.23;1.57;;;3.10;99.90;;;;;;6249059;22;20487;-82
2022/02/06 00:15:33;;;;;;;5.20;2.17;;;3.20;99.90;;;;;;6247189;22;20400;-81
2022/02/06 00:17:59;;;;;;;2.03;1.53;;;3.20;99.90;;;;;;6244739;22;20929;-81
2022/02/06 00:20:31;;;;;;;1.63;1.30;;;3.20;99.90;;;;;;6241609;22;20777;-81
2022/02/06 00:23:00;;;;;;;2.23;1.57;;;3.30;99.90;;;;;;6241115;22;20578;-81
2022/02/06 00:25:56;;;;;;;2.60;1.50;;;3.30;99.90;;;;;;6243941;22;20462;-81
2022/02/06 00:31:08;;;;;;;3.80;1.40;;;3.30;99.90;;;;;;6277390;22;20450;-79
2022/02/06 00:33:53;;;;;;;1.93;1.33;;;3.30;99.90;;;;;;6242400;22;20836;-80
2022/02/06 00:39:05;;;;;;;2.07;1.03;;;3.40;99.90;;;;;;6269448;22;20376;-81
2022/02/06 00:41:35;;;;;;;2.63;1.30;;;3.40;99.90;;;;;;6245376;22;20392;-82
2022/02/06 00:44:03;;;;;;;2.53;1.23;;;3.40;99.90;;;;;;6238258;22;20519;-82
2022/02/06 00:46:30;;;;;;;1.63;1.07;;;3.40;99.90;;;;;;6234165;22;20396;-81
2022/02/06 00:48:59;;;;;;;3.87;1.57;;;3.50;99.90;;;;;;6238384;22;20679;-81
2022/02/06 00:53:51;;;;;;;1.60;1.00;;;3.60;99.90;;;;;;6268444;22;20387;-81
2022/02/06 00:56:17;;;;;;;1.50;1.03;;;3.60;99.90;;;;;;6238033;22;20157;-81
2022/02/06 00:58:43;;;;;;;5.30;1.47;;;3.60;99.90;;;;;;6236895;22;20809;-81
2022/02/06 01:01:09;;;;;;;1.27;0.90;;;3.60;99.90;;;;;;6237656;22;20243;-82
2022/02/06 01:03:35;;;;;;;4.80;1.83;;;3.60;99.90;;;;;;6236043;22;20530;-81
2022/02/06 01:06:01;;;;;;;1.53;1.03;;;3.60;99.90;;;;;;6241099;22;20463;-82
2022/02/06 01:08:27;;;;;;;6.07;1.90;;;3.60;99.90;;;;;;6242066;22;20899;-81
2022/02/06 01:10:53;;;;;;;2.17;1.23;;;3.60;99.90;;;;;;6238895;22;20490;-81
2022/02/06 01:13:35;;;;;;;2.57;1.50;;;3.60;99.90;;;;;;6237741;22;20407;-81
2022/02/06 01:18:38;;;;;;;1.67;1.10;;;3.60;99.90;;;;;;6274968;22;20379;-81
2022/02/06 01:21:19;;;;;;;2.77;1.33;;;3.60;99.90;;;;;;6234249;22;20235;-81
2022/02/06 01:34:11;;;;;;;4.33;1.10;;;3.60;99.90;;;;;;6262972;22;20494;-80
2022/02/06 01:36:43;;;;;;;2.47;1.20;;;3.70;99.90;;;;;;6239820;22;20388;-81
2022/02/06 01:39:58;;;;;;;2.77;1.10;;;3.70;99.90;;;;;;6239770;22;20870;-82
2022/02/06 01:42:00;;;;;;;2.50;1.20;;;3.60;99.90;;;;;;6250650;22;20376;-82
2022/02/06 01:44:58;;;;;;;2.63;1.20;;;3.60;99.90;;;;;;6240250;22;21389;-82
2022/02/06 02:26:51;;;;;;;3.50;0.97;;;3.50;99.90;;;;;;6270039;22;20433;-82
2022/02/06 02:48:03;;;;;;;3.77;0.90;;;3.70;99.90;;;;;;6265016;22;20388;-81
2022/02/06 02:50:32;;;;;;;2.30;1.03;;;3.70;99.90;;;;;;6239728;22;20521;-82
2022/02/06 02:57:57;;;;;;;1.40;1.10;;;3.70;99.90;;;;;;6270499;22;20232;-83
2022/02/06 03:02:52;;;;;;;2.70;1.20;;;3.70;99.90;;;;;;6273325;22;21185;-81
2022/02/06 03:05:17;;;;;;;2.03;0.70;;;3.80;99.90;;;;;;6240140;22;20615;-81
2022/02/06 03:07:43;;;;;;;5.67;1.17;;;3.70;99.90;;;;;;6240047;22;20386;-81
2022/02/06 03:10:10;;;;;;;4.10;0.90;;;3.70;99.90;;;;;;6237796;22;20710;-81
2022/02/06 03:12:36;;;;;;;1.33;1.07;;;3.70;99.90;;;;;;6245493;22;20324;-81
2022/02/06 03:15:18;;;;;;;0.93;0.70;;;3.70;99.90;;;;;;6242545;22;20840;-81
2022/02/06 03:17:56;;;;;;;4.77;0.90;;;3.80;99.90;;;;;;6238996;22;20676;-81
2022/02/06 03:20:22;;;;;;;1.50;0.83;;;3.80;99.90;;;;;;6237970;22;21080;-81
2022/02/06 03:22:53;;;;;;;3.97;1.23;;;3.80;99.90;;;;;;6239234;22;20764;-81
2022/02/06 03:25:21;;;;;;;1.40;0.80;;;3.80;99.90;;;;;;6240422;22;20258;-81
2022/02/06 03:27:52;;;;;;;1.40;0.90;;;3.80;99.90;;;;;;6242246;22;20962;-81
2022/02/06 03:30:19;;;;;;;2.90;1.20;;;3.90;99.90;;;;;;6267146;22;20372;-82
2022/02/06 03:32:45;;;;;;;1.93;0.90;;;3.90;99.90;;;;;;6240906;22;20495;-81
2022/02/06 03:35:11;;;;;;;0.90;0.70;;;3.90;99.90;;;;;;6236298;22;20432;-81
2022/02/06 03:37:39;;;;;;;1.90;0.80;;;3.90;99.90;;;;;;6237811;22;20388;-82
2022/02/06 03:40:07;;;;;;;1.37;0.90;;;3.80;99.90;;;;;;6237800;22;20241;-81
2022/02/06 03:42:44;;;;;;;1.80;1.00;;;3.80;99.90;;;;;;6246087;22;20939;-81
2022/02/06 03:45:17;;;;;;;1.80;1.00;;;3.80;99.90;;;;;;6243527;22;20454;-81
2022/02/06 03:47:51;;;;;;;2.70;1.13;;;3.80;99.90;;;;;;6243353;22;20650;-81
2022/02/06 03:50:18;;;;;;;2.23;1.33;;;3.80;99.90;;;;;;6242842;22;20384;-82
2022/02/06 03:52:47;;;;;;;2.10;0.90;;;3.80;99.90;;;;;;6244958;22;20391;-81
2022/02/06 03:55:19;;;;;;;2.80;1.10;;;3.70;99.90;;;;;;6244285;22;20476;-81
2022/02/06 03:57:50;;;;;;;4.53;1.23;;;3.70;99.90;;;;;;6245077;22;20769;-81
2022/02/06 04:00:23;;;;;;;3.13;1.07;;;3.70;99.90;;;;;;6244133;22;20388;-81
2022/02/06 04:02:50;;;;;;;4.13;0.90;;;3.70;99.90;;;;;;6245675;22;20454;-81
2022/02/06 04:05:15;;;;;;;1.70;1.20;;;3.70;99.90;;;;;;6243050;22;20435;-81
2022/02/06 04:07:48;;;;;;;3.67;1.20;;;3.80;99.90;;;;;;6243861;22;20392;-81
2022/02/06 04:10:15;;;;;;;2.10;0.90;;;3.70;99.90;;;;;;6245627;22;20159;-81
2022/02/06 04:12:43;;;;;;;1.80;1.40;;;3.70;99.90;;;;;;6250458;22;20406;-81
2022/02/06 04:15:37;;;;;;;3.90;1.17;;;3.70;99.90;;;;;;6248504;22;20867;-81
2022/02/06 04:18:14;;;;;;;1.77;0.90;;;3.70;99.90;;;;;;6274396;22;20617;-81
2022/02/06 04:20:40;;;;;;;1.40;1.20;;;3.70;99.90;;;;;;6243628;22;20390;-81
2022/02/06 04:23:06;;;;;;;3.47;0.83;;;3.70;99.90;;;;;;6244980;22;20389;-81
2022/02/06 04:25:32;;;;;;;3.43;1.20;;;3.70;99.90;;;;;;6245336;22;20455;-82
2022/02/06 04:27:58;;;;;;;4.20;0.90;;;3.70;99.90;;;;;;6243465;22;20894;-82
2022/02/06 04:30:27;;;;;;;1.70;0.87;;;3.70;99.90;;;;;;6245727;22;20590;-81
2022/02/06 04:32:54;;;;;;;3.40;1.40;;;3.70;99.90;;;;;;6246344;22;20388;-81
2022/02/06 04:35:22;;;;;;;1.80;1.20;;;3.70;99.90;;;;;;6244260;22;20430;-82
2022/02/06 04:40:58;;;;;;;1.10;1.00;;;3.70;99.90;;;;;;6285381;22;20585;-82
2022/02/06 05:13:39;;;;;;;6.20;1.07;;;3.90;99.90;;;;;;6270765;22;20364;-81
2022/02/06 05:16:08;;;;;;;1.70;1.03;;;3.90;99.90;;;;;;6272231;22;20372;-82
2022/02/06 05:27:01;;;;;;;1.63;1.20;;;4.00;99.90;;;;;;6275632;22;20392;-81
2022/02/06 05:29:40;;;;;;;1.57;1.00;;;3.90;99.90;;;;;;6245837;22;20429;-81
2022/02/06 05:34:52;;;;;;;3.17;1.10;;;4.00;99.90;;;;;;6274695;22;20368;-82
2022/02/06 05:37:17;;;;;;;0.70;0.67;;;4.00;99.90;;;;;;6245806;22;20390;-81
2022/02/06 05:39:43;;;;;;;2.77;0.97;;;4.10;99.90;;;;;;6244485;22;20663;-82
2022/02/06 05:42:09;;;;;;;1.90;0.90;;;4.10;99.90;;;;;;6241793;22;20166;-81
2022/02/06 05:44:35;;;;;;;5.77;1.63;;;4.10;99.90;;;;;;6247457;22;20293;-81
2022/02/06 05:47:04;;;;;;;1.63;0.90;;;4.10;99.90;;;;;;6247839;22;20390;-81
2022/02/06 05:49:35;;;;;;;1.60;1.03;;;4.00;99.90;;;;;;6243052;22;20836;-81
2022/02/06 05:52:00;;;;;;;2.10;0.90;;;4.10;99.90;;;;;;6245497;22;20393;-82
2022/02/06 05:54:26;;;;;;;1.13;0.80;;;4.10;99.90;;;;;;6244848;22;20439;-82
2022/02/06 05:56:52;;;;;;;2.57;1.00;;;4.00;99.90;;;;;;6244585;22;20248;-81
2022/02/06 05:59:17;;;;;;;3.37;0.90;;;4.10;99.90;;;;;;6246127;22;20595;-81
2022/02/06 06:01:43;;;;;;;3.60;1.10;;;4.00;99.90;;;;;;6245687;22;20670;-82
2022/02/06 06:04:09;;;;;;;1.30;1.20;;;4.00;99.90;;;;;;6246348;22;20644;-82
2022/02/06 06:06:36;;;;;;;1.47;0.87;;;4.00;99.90;;;;;;6245976;22;20476;-81
2022/02/06 06:09:02;;;;;;;2.40;0.90;;;4.00;99.90;;;;;;6245315;22;20482;-81
2022/02/06 06:11:28;;;;;;;2.20;0.70;;;4.00;99.90;;;;;;6244391;22;20384;-82
2022/02/06 06:13:53;;;;;;;1.00;1.00;;;4.00;99.90;;;;;;6245643;22;20898;-82
2022/02/06 06:16:19;;;;;;;1.93;0.90;;;4.00;99.90;;;;;;6247706;22;20163;-82
2022/02/06 06:18:45;;;;;;;4.13;1.00;;;4.00;99.90;;;;;;6248474;22;20216;-82
2022/02/06 06:21:12;;;;;;;2.53;0.90;;;4.00;99.90;;;;;;6246984;22;20161;-82
2022/02/06 06:23:43;;;;;;;2.63;0.90;;;4.00;99.90;;;;;;6245368;22;20392;-82
2022/02/06 06:26:11;;;;;;;1.27;0.60;;;4.10;99.90;;;;;;6247173;22;20416;-82
2022/02/06 06:28:41;;;;;;;2.13;0.90;;;4.10;99.90;;;;;;6246179;22;20392;-82
2022/02/06 06:31:06;;;;;;;6.50;1.10;;;4.10;99.90;;;;;;6247596;22;20499;-82
2022/02/06 06:33:32;;;;;;;2.53;1.00;;;4.10;99.90;;;;;;6250040;22;20577;-83
2022/02/06 06:35:58;;;;;;;1.00;0.90;;;4.10;99.90;;;;;;6246444;22;20165;-82
2022/02/06 06:38:25;;;;;;;1.80;1.20;;;4.10;99.90;;;;;;6245007;22;20243;-82
2022/02/06 06:40:52;;;;;;;2.23;1.00;;;4.10;99.90;;;;;;6246765;22;20755;-82
2022/02/06 06:43:18;;;;;;;3.03;1.00;;;4.20;99.90;;;;;;6245825;22;21000;-82
2022/02/06 06:45:43;;;;;;;3.70;1.37;;;4.20;99.90;;;;;;6247188;22;20436;-82
2022/02/06 06:48:09;;;;;;;2.90;1.10;;;4.20;99.90;;;;;;6245363;22;20158;-82
2022/02/06 06:50:35;;;;;;;4.50;0.87;;;4.20;99.90;;;;;;6247356;22;20158;-81
2022/02/06 06:53:04;;;;;;;2.20;1.20;;;4.30;99.90;;;;;;6245504;22;20182;-82
2022/02/06 06:55:32;;;;;;;2.43;1.30;;;4.30;99.90;;;;;;6245038;22;20478;-82
2022/02/06 06:58:17;;;;;;;1.83;1.10;;;4.30;99.90;;;;;;6245786;22;20799;-83
2022/02/06 07:03:31;;;;;;;2.20;0.70;;;4.40;99.90;;;;;;6210999;22;20415;-83
2022/02/06 07:05:57;;;;;;;1.03;0.83;;;4.50;99.90;;;;;;6247108;22;20686;-83
2022/02/06 07:08:22;;;;;;;2.73;0.80;;;4.50;99.90;;;;;;6244354;22;20377;-83
2022/02/06 07:10:49;;;;;;;2.77;1.17;;;4.60;99.90;;;;;;6245053;22;20474;-82
2022/02/06 07:13:17;;;;;;;2.93;1.17;;;4.60;99.90;;;;;;6243920;22;20465;-82
2022/02/06 07:15:42;;;;;;;2.53;0.97;;;4.60;99.90;;;;;;6245224;22;20747;-83
2022/02/06 07:18:08;;;;;;;1.80;0.90;;;4.70;99.90;;;;;;6245868;22;20392;-83
2022/02/06 07:20:36;;;;;;;3.07;1.10;;;4.70;99.90;;;;;;6248305;22;20161;-83
2022/02/06 07:23:03;;;;;;;3.00;1.17;;;4.70;99.90;;;;;;6247276;22;20894;-83
2022/02/06 07:25:29;;;;;;;1.50;1.03;;;4.90;99.90;;;;;;6244096;22;20486;-83
2022/02/06 07:27:59;;;;;;;3.10;1.67;;;4.90;99.90;;;;;;6245020;22;20439;-82
2022/02/06 07:30:26;;;;;;;6.70;1.90;;;4.90;99.90;;;;;;6268469;22;20217;-83
2022/02/06 07:32:52;;;;;;;1.17;0.90;;;5.00;99.90;;;;;;6246731;22;20389;-83
2022/02/06 07:35:17;;;;;;;2.80;1.00;;;5.00;99.90;;;;;;6246345;22;20646;-83
2022/02/06 07:37:45;;;;;;;2.30;1.07;;;5.00;99.90;;;;;;6245140;22;20762;-82
2022/02/06 07:40:12;;;;;;;1.93;1.00;;;5.10;99.90;;;;;;6245734;22;20475;-83
2022/02/06 07:42:38;;;;;;;3.23;0.93;;;5.10;99.90;;;;;;6245060;22;20384;-82
2022/02/06 07:45:05;;;;;;;1.43;0.73;;;5.10;99.90;;;;;;6244188;22;20450;-82
2022/02/06 07:47:30;;;;;;;3.20;1.20;;;5.10;99.90;;;;;;6243786;22;20165;-82
2022/02/06 07:49:58;;;;;;;1.37;0.70;;;5.20;99.90;;;;;;6244310;22;21052;-82
2022/02/06 07:52:25;;;;;;;1.23;0.70;;;5.10;99.90;;;;;;6242895;22;20159;-83
2022/02/06 07:54:52;;;;;;;2.00;1.40;;;5.20;99.90;;;;;;6243223;22;20394;-82
2022/02/06 07:57:20;;;;;;;2.23;1.10;;;5.20;99.90;;;;;;6241676;22;20418;-82
2022/02/06 07:59:46;;;;;;;2.80;0.93;;;5.20;99.90;;;;;;6243859;22;20407;-81
2022/02/06 08:02:12;;;;;;;2.53;1.50;;;5.30;99.90;;;;;;6242761;22;20873;-82
2022/02/06 08:04:39;;;;;;;2.80;1.07;;;5.40;99.90;;;;;;6241417;22;20609;-81
2022/02/06 08:07:14;;;;;;;5.83;2.07;;;5.40;99.90;;;;;;6245799;22;20386;-82
2022/02/06 08:09:51;;;;;;;1.97;1.17;;;5.40;99.90;;;;;;6245669;22;20395;-82
2022/02/06 08:12:25;;;;;;;1.50;0.97;;;5.50;99.90;;;;;;6258000;22;20387;-82
2022/02/06 08:14:54;;;;;;;3.97;1.30;;;5.60;99.90;;;;;;6260246;22;20395;-83
2022/02/06 08:17:25;;;;;;;5.53;1.50;;;5.60;99.90;;;;;;6259313;22;20383;-83
2022/02/06 08:19:53;;;;;;;5.30;1.40;;;5.70;99.90;;;;;;6257924;22;20763;-83
2022/02/06 08:22:19;;;;;;;1.53;1.00;;;5.70;99.90;;;;;;6256507;22;20775;-83
2022/02/06 08:24:48;;;;;;;2.37;1.27;;;5.80;99.90;;;;;;6242705;22;20432;-84
2022/02/06 08:27:17;;;;;;;2.30;0.90;;;5.80;99.90;;;;;;6242470;22;20392;-83
2022/02/06 08:29:46;;;;;;;3.90;1.10;;;5.80;99.90;;;;;;6240210;22;20392;-85
2022/02/06 08:32:14;;;;;;;2.00;1.07;;;5.80;99.90;;;;;;6242137;22;20495;-83
2022/02/06 08:34:45;;;;;;;3.23;1.00;;;5.90;99.90;;;;;;6241563;22;20392;-84
2022/02/06 08:37:12;;;;;;;3.03;1.40;;;5.90;99.90;;;;;;6244982;22;20379;-85
2022/02/06 08:39:39;;;;;;;3.30;0.90;;;5.90;99.90;;;;;;6249996;22;20753;-85
2022/02/06 08:42:09;;;;;;;3.67;0.70;;;5.90;99.90;;;;;;6242546;22;20382;-86
2022/02/06 08:47:23;;;;;;;5.83;0.90;;;6.00;99.90;;;;;;6266035;22;20637;-87
2022/02/06 08:49:49;;;;;;;3.30;1.40;;;5.90;99.90;;;;;;6243340;22;20448;-90
2022/02/06 08:52:28;;;;;;;2.70;1.20;;;6.00;99.90;;;;;;6243656;22;20842;-89
2022/02/06 08:54:56;;;;;;;1.57;1.00;;;6.10;99.90;;;;;;6245552;22;20818;-88
2022/02/06 08:57:30;;;;;;;4.60;1.40;;;6.30;99.90;;;;;;6240147;22;20758;-89
2022/02/06 09:00:08;;;;;;;1.40;0.60;;;6.50;99.90;;;;;;6240151;22;20423;-87
2022/02/06 09:02:57;;;;;;;2.20;0.90;;;6.60;99.90;;;;;;6241343;22;20620;-88
2022/02/06 09:05:24;;;;;;;1.13;0.90;;;6.60;99.90;;;;;;6241307;22;20479;-88
2022/02/06 09:07:53;;;;;;;2.70;1.20;;;6.60;99.90;;;;;;6243785;22;20384;-88
2022/02/06 09:10:21;;;;;;;1.10;0.80;;;6.60;99.90;;;;;;6242167;22;20565;-87
2022/02/06 09:12:54;;;;;;;1.70;1.60;;;6.70;99.90;;;;;;6268689;22;20388;-91
2022/02/06 09:16:03;;;;;;;3.53;0.90;;;6.70;99.90;;;;;;6269137;22;20369;-90
2022/02/06 09:18:32;;;;;;;2.30;1.00;;;6.70;99.90;;;;;;6242559;22;20729;-89
2022/02/06 09:20:58;;;;;;;2.07;1.50;;;6.70;99.90;;;;;;6258194;22;20865;-87
2022/02/06 09:23:24;;;;;;;1.60;0.80;;;6.70;99.90;;;;;;6243411;22;20388;-84
2022/02/06 09:25:51;;;;;;;2.30;0.90;;;6.70;99.90;;;;;;6239101;22;20458;-87
2022/02/06 09:28:17;;;;;;;2.80;1.20;;;6.60;99.90;;;;;;6240138;22;20554;-86
2022/02/06 09:30:43;;;;;;;4.40;1.80;;;6.60;99.90;;;;;;6239931;22;20576;-88
2022/02/06 09:35:34;;;;;;;2.20;1.20;;;6.60;99.90;;;;;;6269625;22;20562;-87
2022/02/06 09:38:01;;;;;;;4.97;1.93;;;6.60;99.90;;;;;;6240871;22;20388;-85
2022/02/06 09:40:31;;;;;;;6.43;1.33;;;6.70;99.90;;;;;;6241448;22;20209;-86
2022/02/06 09:42:58;;;;;;;3.50;0.93;;;6.70;99.90;;;;;;6240516;22;20532;-85
2022/02/06 09:45:26;;;;;;;3.20;0.90;;;6.70;99.90;;;;;;6237572;22;20438;-85
2022/02/06 09:47:53;;;;;;;2.10;1.20;;;6.70;99.90;;;;;;6243682;22;20400;-86
2022/02/06 09:50:20;;;;;;;5.23;1.00;;;6.80;99.90;;;;;;6241783;22;20396;-85
2022/02/06 09:52:46;;;;;;;3.30;1.17;;;6.80;99.90;;;;;;6240478;22;20697;-87
2022/02/06 09:55:18;;;;;;;1.00;0.90;;;6.90;99.90;;;;;;6245119;22;20392;-87
2022/02/06 10:00:54;;;;;;;2.30;1.13;;;7.00;99.90;;;;;;6272837;22;20395;-89
2022/02/06 10:03:44;;;;;;;7.30;1.13;;;7.10;99.90;;;;;;6270415;22;20460;-86
2022/02/06 10:06:29;;;;;;;4.03;0.90;;;7.00;99.90;;;;;;6241709;22;20395;-84
2022/02/06 10:09:01;;;;;;;4.33;1.73;;;7.00;99.90;;;;;;6245229;22;20442;-84
2022/02/06 10:11:35;;;;;;;4.83;1.33;;;7.00;99.90;;;;;;6244743;22;20495;-85
2022/02/06 10:14:01;;;;;;;5.00;2.20;;;7.10;99.90;;;;;;6246196;22;20420;-83
2022/02/06 10:16:30;;;;;;;3.07;1.20;;;7.10;99.90;;;;;;6246813;22;20388;-83
2022/02/06 10:18:56;;;;;;;2.57;1.00;;;7.10;99.90;;;;;;6263159;22;20389;-83
2022/02/06 10:21:47;;;;;;;2.93;1.20;;;7.10;99.90;;;;;;6237737;22;21230;-84
2022/02/06 10:24:33;;;;;;;2.90;1.37;;;7.10;99.90;;;;;;6224687;22;20547;-84
2022/02/06 10:27:21;;;;;;;2.10;0.80;;;7.10;99.90;;;;;;6245912;22;20460;-84
2022/02/06 10:29:56;;;;;;;3.40;1.00;;;7.20;99.90;;;;;;6240829;22;20390;-85
2022/02/06 10:32:22;;;;;;;4.43;1.10;;;7.20;99.90;;;;;;6268352;22;20378;-84
2022/02/06 10:34:48;;;;;;;2.07;0.87;;;7.30;99.90;;;;;;6241298;22;20388;-83
2022/02/06 10:37:16;;;;;;;1.37;1.10;;;7.30;99.90;;;;;;6240912;22;20715;-84
2022/02/06 10:40:04;;;;;;;3.20;0.70;;;7.30;99.90;;;;;;6241717;22;20624;-85
2022/02/06 10:42:42;;;;;;;1.67;0.80;;;7.30;99.90;;;;;;6245482;22;20864;-84
2022/02/06 10:45:31;;;;;;;1.63;1.00;;;7.40;99.90;;;;;;6245022;22;20816;-85
2022/02/06 10:47:57;;;;;;;1.13;0.60;;;7.50;99.90;;;;;;6246698;22;20728;-86
2022/02/06 10:50:28;;;;;;;3.83;0.90;;;7.50;99.90;;;;;;6244477;22;20376;-86
2022/02/06 10:53:16;;;;;;;3.37;0.63;;;7.40;99.90;;;;;;6245074;22;20432;-86
2022/02/06 10:56:03;;;;;;;3.63;1.10;;;7.50;99.90;;;;;;6248006;22;20388;-87
2022/02/06 10:58:31;;;;;;;5.33;1.50;;;7.50;99.90;;;;;;6247683;22;20479;-85
2022/02/06 11:01:20;;;;;;;2.77;1.00;;;7.60;99.90;;;;;;6244858;22;20449;-85
2022/02/06 11:03:50;;;;;;;0.80;0.80;;;7.70;99.90;;;;;;6251109;22;20457;-85
2022/02/06 11:06:42;;;;;;;1.97;1.10;;;7.80;99.90;;;;;;6249583;22;20438;-88
2022/02/06 11:09:25;;;;;;;1.60;1.03;;;7.90;99.90;;;;;;6273230;22;20539;-84
2022/02/06 11:11:51;;;;;;;2.27;0.90;;;8.00;99.90;;;;;;6247232;22;20388;-84
2022/02/06 11:14:30;;;;;;;3.37;1.00;;;8.10;99.90;;;;;;6250887;22;20387;-86
2022/02/06 11:16:57;;;;;;;2.37;0.90;;;8.00;99.90;;;;;;6249243;22;20153;-84
2022/02/06 11:19:37;;;;;;;3.93;0.67;;;8.10;99.90;;;;;;6251497;22;20391;-88
2022/02/06 11:22:10;;;;;;;4.27;0.83;;;8.20;99.90;;;;;;6252433;22;20408;-85
2022/02/06 11:24:52;;;;;;;0.77;0.60;;;8.00;99.90;;;;;;6252494;22;20431;-87
2022/02/06 11:27:21;;;;;;;2.07;0.97;;;8.00;99.90;;;;;;6250914;22;20386;-86
2022/02/06 11:29:47;;;;;;;1.70;0.80;;;8.00;99.90;;;;;;6251080;22;20448;-85
2022/02/06 11:32:14;;;;;;;1.93;0.60;;;8.00;99.90;;;;;;6248935;22;20433;-85
2022/02/06 11:34:46;;;;;;;2.90;1.30;;;7.90;99.90;;;;;;6243350;22;20380;-85
2022/02/06 11:46:13;;;;;;;3.20;1.50;;;7.90;99.90;;;;;;6271339;22;20445;-86
2022/02/06 11:48:41;;;;;;;2.90;1.10;;;7.90;99.90;;;;;;6239568;22;20376;-85
2022/02/06 11:51:22;;;;;;;1.47;0.70;;;7.90;99.90;;;;;;6240517;22;20730;-86
2022/02/06 11:54:38;;;;;;;4.73;1.10;;;7.90;99.90;;;;;;6241454;22;20388;-90
2022/02/06 11:57:30;;;;;;;1.67;0.90;;;8.00;99.90;;;;;;6233015;22;20405;-88
2022/02/06 12:00:02;;;;;;;3.03;1.03;;;8.00;99.90;;;;;;6276819;22;20554;-87
2022/02/06 12:02:56;;;;;;;1.67;1.20;;;8.00;99.90;;;;;;6243306;22;20822;-88
2022/02/06 12:05:33;;;;;;;0.60;0.57;;;8.10;99.90;;;;;;6239665;22;20553;-85
2022/02/06 12:08:10;;;;;;;1.90;1.00;;;8.10;99.90;;;;;;6242578;22;20977;-86
2022/02/06 12:10:36;;;;;;;0.70;0.50;;;8.10;99.90;;;;;;6242470;22;20572;-87
2022/02/06 12:13:32;;;;;;;1.10;0.83;;;8.10;99.90;;;;;;6251400;22;20896;-86
2022/02/06 12:16:01;;;;;;;2.10;0.50;;;8.10;99.90;;;;;;6253026;22;20153;-86
2022/02/06 12:18:34;;;;;;;3.07;0.60;;;8.00;99.90;;;;;;6247331;22;20503;-87
2022/02/06 12:21:13;;;;;;;2.20;0.70;;;8.00;99.90;;;;;;6241492;22;20494;-86
2022/02/06 12:23:46;;;;;;;1.60;0.50;;;8.00;99.90;;;;;;6244016;22;20388;-86
2022/02/06 12:26:38;;;;;;;2.93;0.77;;;8.10;99.90;;;;;;6242916;22;20798;-85
2022/02/06 12:29:15;;;;;;;2.73;1.00;;;8.10;99.90;;;;;;6244096;22;20651;-85
2022/02/06 12:32:00;;;;;;;1.60;0.80;;;8.10;99.90;;;;;;6251529;22;20540;-86
2022/02/06 12:37:36;;;;;;;1.13;0.70;;;8.00;99.90;;;;;;6275514;22;20368;-85
2022/02/06 12:40:13;;;;;;;1.50;0.80;;;8.00;99.90;;;;;;6246193;22;20397;-87
2022/02/06 12:42:42;;;;;;;1.33;0.70;;;8.00;99.90;;;;;;6247114;22;20383;-85
2022/02/06 12:45:17;;;;;;;1.33;0.87;;;8.00;99.90;;;;;;6259044;22;20823;-87
2022/02/06 12:47:45;;;;;;;0.70;0.50;;;8.00;99.90;;;;;;6253824;22;20394;-85
2022/02/06 12:50:16;;;;;;;1.73;0.63;;;8.00;99.90;;;;;;6248170;22;20416;-86
2022/02/06 12:52:53;;;;;;;1.90;0.80;;;8.00;99.90;;;;;;6251701;22;20392;-87
2022/02/06 12:55:25;;;;;;;0.80;0.60;;;8.10;99.90;;;;;;6249194;22;20855;-86
2022/02/06 12:58:00;;;;;;;1.73;0.80;;;8.20;99.90;;;;;;6247134;22;20400;-86
2022/02/06 13:00:57;;;;;;;1.10;0.80;;;8.30;99.90;;;;;;6250914;22;20390;-87
2022/02/06 13:03:35;;;;;;;1.67;0.80;;;8.30;99.90;;;;;;6246604;22;20438;-86
2022/02/06 13:06:07;;;;;;;1.30;0.70;;;8.30;99.90;;;;;;6274708;22;20728;-85
2022/02/06 13:08:37;;;;;;;1.23;0.60;;;8.30;99.90;;;;;;6247558;22;20945;-86
2022/02/06 13:11:14;;;;;;;0.50;0.50;;;8.30;99.90;;;;;;6246565;22;20394;-87
2022/02/06 13:22:19;;;;;;;1.30;0.60;;;8.40;99.90;;;;;;6286434;22;20456;-86
2022/02/06 13:30:04;;;;;;;0.80;0.70;;;8.20;99.90;;;;;;6283970;22;20395;-86
2022/02/06 13:32:42;;;;;;;4.47;0.83;;;8.20;99.90;;;;;;6250507;22;20463;-86
2022/02/06 13:37:45;;;;;;;0.53;0.53;;;8.20;99.90;;;;;;6286961;22;21067;-86
2022/02/06 13:40:17;;;;;;;2.10;0.70;;;8.20;99.90;;;;;;6249978;22;20465;-87
2022/02/06 13:43:15;;;;;;;2.00;0.60;;;8.20;99.90;;;;;;6250913;22;20752;-87
2022/02/06 13:45:42;;;;;;;1.53;0.90;;;8.10;99.90;;;;;;6246834;22;20439;-86
2022/02/06 13:48:25;;;;;;;2.80;0.90;;;8.10;99.90;;;;;;6252413;22;20728;-86
2022/02/06 13:50:55;;;;;;;1.10;0.63;;;8.10;99.90;;;;;;6248850;22;20746;-84
2022/02/06 13:53:29;;;;;;;3.10;1.10;;;8.10;99.90;;;;;;6247528;22;20489;-84
2022/02/06 13:56:01;;;;;;;0.70;0.70;;;8.00;99.90;;;;;;6247642;22;20738;-84
2022/02/06 13:58:29;;;;;;;0.50;0.50;;;8.00;99.90;;;;;;6249039;22;20380;-85
2022/02/06 14:00:56;;;;;;;0.50;0.40;;;8.00;99.90;;;;;;6248307;22;20505;-86
2022/02/06 14:03:41;;;;;;;0.47;0.47;;;8.00;99.90;;;;;;6249585;22;20787;-87
2022/02/06 14:06:08;;;;;;;0.70;0.70;;;7.90;99.90;;;;;;6245942;22;20455;-83
2022/02/06 14:08:36;;;;;;;0.83;0.83;;;7.90;99.90;;;;;;6247318;22;20399;-85
2022/02/06 14:11:07;;;;;;;0.63;0.40;;;7.90;99.90;;;;;;6247177;22;20458;-85
2022/02/06 14:13:33;;;;;;;1.10;0.90;;;7.80;99.90;;;;;;6247898;22;20391;-85
2022/02/06 14:16:11;;;;;;;2.30;0.50;;;7.80;99.90;;;;;;6248727;22;20404;-85
2022/02/06 14:19:09;;;;;;;2.10;0.83;;;7.70;99.90;;;;;;6250992;22;20249;-87
2022/02/06 14:21:43;;;;;;;1.30;0.90;;;7.70;99.90;;;;;;6279698;22;20417;-85
2022/02/06 14:24:09;;;;;;;0.73;0.50;;;7.60;99.90;;;;;;6255276;22;20384;-86
2022/02/06 14:26:35;;;;;;;3.60;0.70;;;7.50;99.90;;;;;;6256574;22;20404;-86
2022/02/06 14:29:01;;;;;;;2.67;0.60;;;7.50;99.90;;;;;;6256861;22;20382;-86
2022/02/06 14:31:33;;;;;;;0.63;0.53;;;7.50;99.90;;;;;;6257374;22;20161;-86
2022/02/06 14:34:19;;;;;;;0.90;0.40;;;7.40;99.90;;;;;;6256093;22;20161;-87
2022/02/06 14:37:14;;;;;;;0.50;0.50;;;7.30;99.90;;;;;;6255337;22;20931;-86
2022/02/06 14:40:06;;;;;;;1.80;0.50;;;7.20;99.90;;;;;;6254009;22;20426;-84
2022/02/06 14:42:36;;;;;;;2.10;0.40;;;7.20;99.90;;;;;;6282494;22;20390;-87
2022/02/06 14:45:48;;;;;;;0.50;0.50;;;7.00;99.90;;;;;;6254782;22;20948;-87
2022/02/06 14:48:29;;;;;;;1.13;0.40;;;6.90;99.90;;;;;;6254796;22;20916;-87
2022/02/06 14:50:56;;;;;;;0.60;0.60;;;6.80;99.90;;;;;;6232918;22;20399;-86
2022/02/06 14:53:25;;;;;;;1.37;0.67;;;6.80;99.90;;;;;;6254197;22;20391;-88
2022/02/06 14:55:55;;;;;;;0.60;0.50;;;6.80;99.90;;;;;;6272947;22;20448;-85
2022/02/06 14:58:21;;;;;;;0.97;0.70;;;6.70;99.90;;;;;;6253519;22;20842;-86
2022/02/06 15:00:47;;;;;;;1.97;0.80;;;6.60;99.90;;;;;;6255772;22;20711;-85
2022/02/06 15:03:13;;;;;;;0.70;0.50;;;6.70;99.90;;;;;;6253477;22;20956;-86
2022/02/06 15:05:40;;;;;;;1.20;0.77;;;6.60;99.90;;;;;;6259114;22;20871;-85
2022/02/06 15:08:09;;;;;;;0.70;0.50;;;6.50;99.90;;;;;;6261066;22;20852;-89
2022/02/06 15:10:35;;;;;;;1.10;0.93;;;6.50;99.90;;;;;;6277062;22;20400;-86
2022/02/06 15:13:02;;;;;;;0.60;0.53;;;6.40;99.90;;;;;;6252255;22;20415;-85
2022/02/06 15:15:36;;;;;;;0.70;0.70;;;6.40;99.90;;;;;;6252334;22;21004;-87
2022/02/06 15:18:12;;;;;;;2.60;0.80;;;6.30;99.90;;;;;;6253007;22;20718;-85
2022/02/06 15:20:37;;;;;;;0.70;0.60;;;6.30;99.90;;;;;;6254409;22;20425;-85
2022/02/06 15:23:07;;;;;;;1.30;0.63;;;6.30;99.90;;;;;;6253004;22;20930;-84
2022/02/06 15:25:34;;;;;;;0.70;0.70;;;6.20;99.90;;;;;;6252673;22;20224;-86
2022/02/06 15:28:00;;;;;;;0.80;0.80;;;6.20;99.90;;;;;;6252644;22;21111;-85
2022/02/06 15:30:26;;;;;;;1.60;0.83;;;6.10;99.90;;;;;;6252838;22;20392;-87
2022/02/06 15:32:51;;;;;;;0.50;0.40;;;6.10;99.90;;;;;;6252695;22;20171;-86
2022/02/06 15:35:17;;;;;;;0.30;0.30;;;6.00;99.90;;;;;;6251324;22;20727;-86
2022/02/06 15:37:43;;;;;;;1.07;0.63;;;6.00;99.90;;;;;;6252203;22;20161;-87
2022/02/06 15:40:14;;;;;;;0.70;0.70;;;5.90;99.90;;;;;;6253270;22;20156;-87
2022/02/06 15:42:40;;;;;;;1.47;0.60;;;5.90;99.90;;;;;;6254261;22;20337;-87
2022/02/06 15:45:06;;;;;;;1.03;0.60;;;5.90;99.90;;;;;;6252069;22;20440;-86
2022/02/06 15:47:32;;;;;;;0.80;0.50;;;5.90;99.90;;;;;;6253119;22;20644;-86
2022/02/06 15:49:57;;;;;;;0.60;0.60;;;5.80;99.90;;;;;;6253593;22;20455;-87
2022/02/06 15:52:23;;;;;;;0.60;0.60;;;5.80;99.90;;;;;;6252871;22;20316;-87
2022/02/06 15:54:49;;;;;;;1.30;0.70;;;5.80;99.90;;;;;;6250861;22;20161;-85
2022/02/06 15:57:14;;;;;;;0.60;0.60;;;5.70;99.90;;;;;;6252342;22;20153;-88
2022/02/06 15:59:40;;;;;;;0.53;0.53;;;5.70;99.90;;;;;;6252588;22;20552;-88
2022/02/06 16:02:06;;;;;;;0.87;0.87;;;5.70;99.90;;;;;;6252601;22;20752;-88
2022/02/06 16:04:31;;;;;;;1.33;0.70;;;5.80;99.90;;;;;;6252269;22;20415;-86
2022/02/06 16:06:57;;;;;;;0.80;0.40;;;5.70;99.90;;;;;;6250976;22;20176;-88
2022/02/06 16:09:29;;;;;;;0.60;0.60;;;5.70;99.90;;;;;;6252237;22;20158;-86